Time;durP1;ratioP1;P1;durP2;ratioP2;P2;SDS_P1;SDS_P2;PMS_P1;PMS_P2;Temp;Humidity;BMP_temperature;BMP_pressure;BME280_temperature;BME280_humidity;BME280_pressure;Samples;Min_cycle;Max_cycle;Signal;HPM_P1;HPM_P2
2022/10/25 00:01:24;;;;;;;6.45;2.33;;;;;;;14.82;100.00;101032.97;4686751;30;20096;-44
2022/10/25 00:03:52;;;;;;;8.23;2.38;;;;;;;14.79;100.00;101042.59;4700961;30;20066;-46
2022/10/25 00:06:20;;;;;;;6.40;2.65;;;;;;;14.80;100.00;101040.66;4707024;30;20053;-46
2022/10/25 00:08:48;;;;;;;10.48;2.63;;;;;;;14.79;100.00;101048.09;4701662;30;20045;-47
2022/10/25 00:11:23;;;;;;;9.63;2.97;;;;;;;14.79;100.00;101039.88;4702821;30;20046;-43
2022/10/25 00:13:51;;;;;;;8.50;2.65;;;;;;;14.78;100.00;101046.44;4702265;30;20103;-45
2022/10/25 00:16:25;;;;;;;8.30;2.80;;;;;;;14.78;100.00;101048.38;4702587;30;20061;-46
2022/10/25 00:18:53;;;;;;;9.98;2.58;;;;;;;14.77;100.00;101042.06;4719954;30;20095;-44
2022/10/25 00:21:21;;;;;;;8.52;3.00;;;;;;;14.77;100.00;101036.59;4705074;30;20114;-47
2022/10/25 00:23:51;;;;;;;8.80;2.80;;;;;;;14.78;100.00;101049.19;4720574;30;20055;-46
2022/10/25 00:26:20;;;;;;;10.23;2.92;;;;;;;14.76;100.00;101051.38;4721300;30;20100;-44
2022/10/25 00:28:48;;;;;;;11.05;3.35;;;;;;;14.75;100.00;101044.28;4720425;30;20052;-46
2022/10/25 00:31:16;;;;;;;10.65;3.10;;;;;;;14.76;100.00;101050.59;4721551;30;20053;-46
2022/10/25 00:33:44;;;;;;;8.55;2.97;;;;;;;14.78;100.00;101059.34;4722701;30;20042;-47
2022/10/25 00:36:13;;;;;;;10.65;2.72;;;;;;;14.77;100.00;101058.53;4720101;30;20068;-43
2022/10/25 00:38:41;;;;;;;7.85;2.53;;;;;;;14.78;100.00;101054.66;4704798;30;20061;-46
2022/10/25 00:41:09;;;;;;;10.40;2.67;;;;;;;14.75;100.00;101048.97;4718389;30;20524;-47
2022/10/25 00:43:41;;;;;;;7.35;2.45;;;;;;;14.73;100.00;101057.47;4719246;30;20055;-47
2022/10/25 00:46:28;;;;;;;10.57;2.80;;;;;;;14.73;100.00;101057.47;4718482;30;20068;-46
2022/10/25 00:49:09;;;;;;;8.77;2.70;;;;;;;14.73;100.00;101059.41;4720744;30;20124;-44
2022/10/25 00:51:49;;;;;;;9.60;2.83;;;;;;;14.72;100.00;101069.56;4717819;30;20072;-45
2022/10/25 00:54:22;;;;;;;10.35;2.75;;;;;;;14.70;100.00;101072.59;4704299;30;20144;-44
2022/10/25 00:56:51;;;;;;;11.27;2.90;;;;;;;14.72;100.00;101075.03;4719796;30;20563;-46
2022/10/25 00:59:21;;;;;;;9.35;2.58;;;;;;;14.71;100.00;101070.66;4718810;30;20088;-44
2022/10/25 01:01:49;;;;;;;10.73;2.85;;;;;;;14.72;100.00;101064.06;4718901;30;20394;-45
2022/10/25 01:04:18;;;;;;;10.07;3.00;;;;;;;14.72;100.00;101066.81;4718095;30;20132;-47
2022/10/25 01:06:48;;;;;;;11.07;2.85;;;;;;;14.72;100.00;101065.97;4717567;30;20520;-42
2022/10/25 01:09:32;;;;;;;9.35;2.45;;;;;;;14.69;100.00;101070.13;4718181;30;20148;-43
2022/10/25 01:11:59;;;;;;;16.98;3.45;;;;;;;14.69;100.00;101068.19;4717640;30;20052;-46
2022/10/25 01:14:27;;;;;;;13.43;3.63;;;;;;;14.73;100.00;101067.63;4718878;30;20080;-44
2022/10/25 01:17:15;;;;;;;9.13;2.63;;;;;;;14.74;100.00;101070.06;4718547;30;20084;-44
2022/10/25 01:20:11;;;;;;;5.85;2.30;;;;;;;14.75;100.00;101079.13;4718418;30;20045;-45
2022/10/25 01:22:48;;;;;;;9.13;2.75;;;;;;;14.76;100.00;101075.25;4703174;30;20456;-45
2022/10/25 01:25:29;;;;;;;12.63;2.72;;;;;;;14.75;100.00;101074.47;4718853;30;20045;-44
2022/10/25 01:28:04;;;;;;;9.38;2.72;;;;;;;14.75;100.00;101081.88;4718021;30;20049;-44
2022/10/25 01:30:31;;;;;;;8.43;2.55;;;;;;;14.75;100.00;101079.94;4702667;30;20065;-44
2022/10/25 01:33:16;;;;;;;11.02;2.92;;;;;;;14.76;100.00;101081.56;4703241;30;20060;-44
2022/10/25 01:36:14;;;;;;;12.00;2.80;;;;;;;14.76;100.00;101073.34;4717794;30;20061;-45
2022/10/25 01:38:49;;;;;;;12.75;3.15;;;;;;;14.75;100.00;101082.69;4718317;30;20049;-45
2022/10/25 01:41:35;;;;;;;9.07;2.90;;;;;;;14.77;100.00;101087.84;4720598;30;20064;-46
2022/10/25 01:44:21;;;;;;;10.85;2.88;;;;;;;14.77;100.00;101091.44;4716628;30;20051;-45
2022/10/25 01:46:53;;;;;;;;;;;;;;;14.78;100.00;101087.59;4718887;30;20111;-44
2022/10/25 01:49:36;;;;;;;8.50;2.40;;;;;;;14.78;100.00;101095.81;4718243;30;19927;-43
2022/10/25 01:52:04;;;;;;;11.77;2.75;;;;;;;14.78;100.00;101087.59;4715562;30;20057;-44
2022/10/25 01:54:31;;;;;;;12.50;3.08;;;;;;;14.76;100.00;101095.28;4718262;30;20126;-45
2022/10/25 01:57:20;;;;;;;8.85;2.60;;;;;;;14.76;100.00;101083.50;4702889;30;20053;-44
2022/10/25 02:00:10;;;;;;;8.88;3.03;;;;;;;14.76;100.00;101091.72;4717871;30;20509;-45
2022/10/25 02:02:55;;;;;;;8.95;2.50;;;;;;;14.75;100.00;101090.91;4717282;30;20053;-45
2022/10/25 02:05:56;;;;;;;9.27;2.85;;;;;;;14.74;100.00;101102.97;4716031;30;20085;-46
2022/10/25 02:08:43;;;;;;;10.60;2.90;;;;;;;14.73;100.00;101101.34;4718312;30;20107;-44
2022/10/25 02:11:27;;;;;;;10.45;3.00;;;;;;;14.70;100.00;101104.69;4717910;30;20087;-45
2022/10/25 02:14:26;;;;;;;9.20;2.97;;;;;;;14.72;100.00;101099.72;4707606;30;20474;-45
2022/10/25 02:17:11;;;;;;;11.35;3.00;;;;;;;14.70;100.00;101108.22;4714960;30;20119;-46
2022/10/25 02:19:52;;;;;;;7.45;2.47;;;;;;;14.71;100.00;101109.03;4716540;30;20501;-46
2022/10/25 02:22:22;;;;;;;14.27;3.25;;;;;;;14.70;100.00;101105.50;4720760;30;20045;-43
2022/10/25 02:24:51;;;;;;;10.40;2.53;;;;;;;14.72;100.00;101105.22;4729356;30;20053;-45
2022/10/25 02:27:20;;;;;;;11.43;3.05;;;;;;;14.74;100.00;101113.13;4701865;30;20060;-47
2022/10/25 02:29:48;;;;;;;11.45;2.78;;;;;;;14.72;100.00;101107.97;4716721;30;20402;-44
2022/10/25 02:32:15;;;;;;;10.07;2.78;;;;;;;14.71;100.00;101106.31;4715633;30;20053;-45
2022/10/25 02:34:45;;;;;;;10.30;2.33;;;;;;;14.69;100.00;101109.31;4718219;30;20053;-48
2022/10/25 02:37:13;;;;;;;9.60;2.80;;;;;;;14.70;100.00;101110.16;4717626;30;20073;-45
2022/10/25 02:39:41;;;;;;;7.95;2.85;;;;;;;14.69;100.00;101117.56;4717399;30;20049;-47
2022/10/25 02:42:08;;;;;;;14.48;2.88;;;;;;;14.69;100.00;101119.47;4717689;30;20057;-43
2022/10/25 02:44:36;;;;;;;10.23;2.47;;;;;;;14.67;100.00;101108.81;4714867;30;20056;-44
2022/10/25 02:47:03;;;;;;;11.55;2.78;;;;;;;14.64;100.00;101116.78;4687347;30;20464;-42
2022/10/25 02:49:31;;;;;;;8.35;2.70;;;;;;;14.63;100.00;101117.91;4717491;30;20083;-45
2022/10/25 02:51:59;;;;;;;10.55;2.92;;;;;;;14.62;100.00;101121.75;4717237;30;20057;-47
2022/10/25 02:54:26;;;;;;;8.70;2.47;;;;;;;14.61;100.00;101120.13;4703427;30;20099;-45
2022/10/25 02:56:54;;;;;;;9.05;2.95;;;;;;;14.63;100.00;101120.66;4717616;30;20060;-42
2022/10/25 02:59:21;;;;;;;8.90;2.55;;;;;;;14.64;100.00;101125.03;4717478;30;20049;-43
2022/10/25 03:01:49;;;;;;;4.95;1.95;;;;;;;14.64;100.00;101127.75;4717540;30;20045;-42
2022/10/25 03:04:17;;;;;;;8.20;2.45;;;;;;;14.64;100.00;101122.28;4715400;30;20053;-44
2022/10/25 03:06:44;;;;;;;8.38;2.50;;;;;;;14.61;100.00;101125.59;4717466;30;20497;-43
2022/10/25 03:09:12;;;;;;;8.90;2.53;;;;;;;14.60;100.00;101126.69;4717462;30;20060;-45
2022/10/25 03:11:39;;;;;;;7.53;2.65;;;;;;;14.58;100.00;101126.19;4717158;30;20114;-45
2022/10/25 03:14:07;;;;;;;10.52;2.85;;;;;;;14.57;100.00;101130.03;4716786;30;20524;-45
2022/10/25 03:16:34;;;;;;;7.80;2.65;;;;;;;14.53;100.00;101137.13;4714251;30;20095;-47
2022/10/25 03:19:02;;;;;;;11.68;2.90;;;;;;;14.52;100.00;101135.50;4725878;30;20104;-43
2022/10/25 03:21:30;;;;;;;8.63;2.50;;;;;;;14.51;100.00;101134.69;4717341;30;20575;-46
2022/10/25 03:23:57;;;;;;;9.90;2.80;;;;;;;14.48;100.00;101138.84;4717652;30;20124;-47
2022/10/25 03:26:25;;;;;;;9.63;2.60;;;;;;;14.46;100.00;101146.53;4715796;30;20049;-45
2022/10/25 03:28:53;;;;;;;9.20;2.72;;;;;;;14.45;100.00;101144.06;4715792;30;20398;-43
2022/10/25 03:31:20;;;;;;;10.85;2.55;;;;;;;14.42;100.00;101153.69;4715543;30;20053;-43
2022/10/25 03:33:53;;;;;;;9.40;2.50;;;;;;;14.43;100.00;101151.75;4725940;30;20063;-45
2022/10/25 03:36:21;;;;;;;11.10;2.88;;;;;;;14.43;100.00;101158.06;4721621;30;20061;-46
2022/10/25 03:38:49;;;;;;;9.30;2.72;;;;;;;14.42;100.00;101172.88;4716919;30;20497;-42
2022/10/25 03:41:16;;;;;;;7.07;2.50;;;;;;;14.42;100.00;101161.91;4716304;30;20080;-45
2022/10/25 03:43:44;;;;;;;8.20;2.50;;;;;;;14.42;100.00;101170.13;4715763;30;20115;-45
2022/10/25 03:46:11;;;;;;;5.50;2.22;;;;;;;14.41;100.00;101165.75;4701262;30;20049;-47
2022/10/25 03:48:39;;;;;;;8.45;2.30;;;;;;;14.42;100.00;101169.31;4716826;30;20478;-46
2022/10/25 03:51:07;;;;;;;10.75;2.75;;;;;;;14.40;100.00;101177.81;4717234;30;20110;-44
2022/10/25 03:53:34;;;;;;;8.80;2.70;;;;;;;14.39;100.00;101178.94;4715139;30;20095;-42
2022/10/25 03:56:02;;;;;;;7.25;2.38;;;;;;;14.37;100.00;101175.66;4716846;30;20049;-45
2022/10/25 03:58:29;;;;;;;8.57;2.65;;;;;;;14.34;100.00;101186.38;4717036;30;20111;-45
2022/10/25 04:00:58;;;;;;;8.23;3.33;;;;;;;14.32;100.00;101185.84;4716299;30;20108;-45
2022/10/25 04:03:26;;;;;;;11.05;3.10;;;;;;;14.31;100.00;101190.50;4715937;30;20052;-45
2022/10/25 04:05:54;;;;;;;6.25;2.20;;;;;;;14.32;100.00;101188.59;4714568;30;20748;-42
2022/10/25 04:08:21;;;;;;;9.90;2.53;;;;;;;14.28;100.00;101194.63;4717137;30;20045;-44
2022/10/25 04:10:49;;;;;;;9.43;2.85;;;;;;;14.28;100.00;101197.34;4716911;30;20048;-45
2022/10/25 04:13:16;;;;;;;8.27;2.53;;;;;;;14.27;100.00;101193.00;4716630;30;20144;-45
2022/10/25 04:15:44;;;;;;;7.18;2.50;;;;;;;14.26;100.00;101190.50;4715139;30;20098;-45
2022/10/25 04:18:11;;;;;;;9.18;2.78;;;;;;;14.24;100.00;101192.75;4716462;30;20049;-44
2022/10/25 04:20:39;;;;;;;8.20;2.47;;;;;;;14.24;100.00;101190.81;4716760;30;20124;-47
2022/10/25 04:23:07;;;;;;;8.77;2.97;;;;;;;14.22;100.00;101195.75;4716590;30;20053;-45
2022/10/25 04:25:34;;;;;;;8.00;2.47;;;;;;;14.22;100.00;101198.50;4715069;30;20111;-43
2022/10/25 04:28:03;;;;;;;11.80;2.50;;;;;;;14.20;100.00;101197.97;4728077;30;20394;-45
2022/10/25 04:30:31;;;;;;;7.63;2.72;;;;;;;14.20;100.00;101202.63;4716621;30;20103;-45
2022/10/25 04:33:04;;;;;;;8.43;2.63;;;;;;;14.19;100.00;101207.28;4716580;30;20060;-43
2022/10/25 04:35:32;;;;;;;9.13;2.38;;;;;;;14.17;100.00;101203.22;4703421;30;20456;-47
2022/10/25 04:37:59;;;;;;;8.98;2.70;;;;;;;14.17;100.00;101198.53;4716307;30;20124;-46
2022/10/25 04:40:27;;;;;;;6.95;2.38;;;;;;;14.17;100.00;101204.00;4716768;30;20057;-44
2022/10/25 04:42:55;;;;;;;8.70;2.65;;;;;;;14.17;100.00;101208.69;4718095;30;20045;-46
2022/10/25 04:45:23;;;;;;;7.75;2.42;;;;;;;14.17;100.00;101211.44;4719465;30;20512;-47
2022/10/25 04:47:50;;;;;;;8.95;2.65;;;;;;;14.18;100.00;101210.31;4719435;30;20107;-46
2022/10/25 04:50:18;;;;;;;8.30;2.50;;;;;;;14.16;100.00;101213.31;4703691;30;20053;-47
2022/10/25 04:52:45;;;;;;;8.30;2.58;;;;;;;14.13;100.00;101213.91;4718452;30;20570;-46
2022/10/25 04:55:14;;;;;;;9.05;2.13;;;;;;;14.14;100.00;101209.22;4719623;30;20524;-43
2022/10/25 04:57:41;;;;;;;8.07;2.40;;;;;;;14.13;100.00;101204.88;4721509;30;20098;-45
2022/10/25 05:00:09;;;;;;;6.07;2.35;;;;;;;14.12;100.00;101212.28;4725794;30;20049;-47
2022/10/25 05:02:37;;;;;;;5.53;2.17;;;;;;;14.12;100.00;101212.28;4719005;30;20049;-45
2022/10/25 05:05:05;;;;;;;7.47;2.42;;;;;;;14.12;100.00;101225.97;4718719;30;20052;-44
2022/10/25 05:07:32;;;;;;;10.32;2.83;;;;;;;14.09;100.00;101218.28;4719415;30;20584;-45
2022/10/25 05:10:00;;;;;;;9.88;2.60;;;;;;;14.09;100.00;101222.97;4704116;30;20084;-44
2022/10/25 05:12:28;;;;;;;5.55;2.17;;;;;;;14.07;100.00;101218.59;4718990;30;20037;-45
2022/10/25 05:14:55;;;;;;;8.65;2.60;;;;;;;14.06;100.00;101224.34;4717771;30;20048;-47
2022/10/25 05:17:23;;;;;;;9.35;2.60;;;;;;;14.06;100.00;101229.81;4711038;30;20052;-45
2022/10/25 05:19:51;;;;;;;10.23;2.83;;;;;;;14.06;100.00;101227.91;4719007;30;20485;-46
2022/10/25 05:22:18;;;;;;;11.75;3.03;;;;;;;14.01;100.00;101244.38;4719513;30;20397;-47
2022/10/25 05:24:46;;;;;;;7.22;2.90;;;;;;;13.96;100.00;101241.66;4723267;30;20072;-44
2022/10/25 05:27:14;;;;;;;18.05;3.67;;;;;;;13.95;100.00;101245.50;4719063;30;20107;-44
2022/10/25 05:29:41;;;;;;;11.10;2.42;;;;;;;13.93;100.00;101253.19;4728308;30;20045;-45
2022/10/25 05:32:09;;;;;;;6.32;2.30;;;;;;;13.98;100.00;101242.19;4718586;30;20045;-46
2022/10/25 05:34:36;;;;;;;11.20;2.92;;;;;;;14.01;100.00;101247.09;4718776;30;20056;-46
2022/10/25 05:37:04;;;;;;;9.82;2.88;;;;;;;14.02;100.00;101259.72;4724507;30;20143;-45
2022/10/25 05:39:32;;;;;;;7.13;2.17;;;;;;;14.03;100.00;101258.59;4717540;30;20053;-47
2022/10/25 05:42:01;;;;;;;8.98;3.40;;;;;;;14.03;100.00;101258.59;4718327;30;20107;-46
2022/10/25 05:44:28;;;;;;;14.55;3.28;;;;;;;14.01;100.00;101260.81;4718569;30;20588;-48
2022/10/25 05:46:56;;;;;;;10.02;2.67;;;;;;;13.98;100.00;101255.91;4718235;30;20166;-46
2022/10/25 05:49:24;;;;;;;10.95;3.00;;;;;;;14.04;100.00;101265.72;4703159;30;20446;-46
2022/10/25 05:51:51;;;;;;;9.75;3.00;;;;;;;14.00;100.00;101275.63;4717964;30;20107;-43
2022/10/25 05:54:19;;;;;;;11.13;3.38;;;;;;;14.00;100.00;101275.63;4059783;30;10000611;-46
2022/10/25 05:56:46;;;;;;;11.88;3.55;;;;;;;13.97;100.00;101270.69;4715024;30;20107;-46
2022/10/25 05:59:14;;;;;;;7.40;2.47;;;;;;;13.95;100.00;101278.38;4716040;30;20151;-44
2022/10/25 06:01:43;;;;;;;8.82;2.40;;;;;;;13.94;100.00;101278.66;4715139;30;20475;-45
2022/10/25 06:04:12;;;;;;;10.60;2.75;;;;;;;13.94;100.00;101286.88;4718840;30;20076;-44
2022/10/25 06:06:41;;;;;;;5.18;2.10;;;;;;;13.96;100.00;101281.94;4714681;30;20053;-48
2022/10/25 06:09:09;;;;;;;9.52;2.97;;;;;;;13.95;100.00;101283.00;4716277;30;21015;-45
2022/10/25 06:11:37;;;;;;;10.25;3.20;;;;;;;13.92;100.00;101295.34;4727550;30;20896;-45
2022/10/25 06:14:05;;;;;;;7.60;2.60;;;;;;;13.93;100.00;101291.53;4715910;30;20049;-48
2022/10/25 06:16:33;;;;;;;9.02;2.80;;;;;;;13.93;100.00;101298.94;4708573;30;20069;-47
2022/10/25 06:19:00;;;;;;;8.07;2.65;;;;;;;13.95;100.00;101297.56;4713361;30;20049;-46
2022/10/25 06:21:29;;;;;;;7.78;2.58;;;;;;;13.95;100.00;101294.81;4714729;30;20107;-42
2022/10/25 06:23:58;;;;;;;9.60;2.53;;;;;;;14.02;100.00;101295.34;4714545;30;20042;-47
2022/10/25 06:26:28;;;;;;;10.80;2.53;;;;;;;14.02;100.00;101299.97;4713344;30;20053;-47
2022/10/25 06:29:00;;;;;;;9.73;3.40;;;;;;;14.06;100.00;101304.63;4713192;30;20045;-47
2022/10/25 06:31:28;;;;;;;9.95;3.80;;;;;;;14.00;100.00;101305.75;4714232;30;20060;-46
2022/10/25 06:33:57;;;;;;;6.35;2.65;;;;;;;13.98;100.00;101313.44;4714121;30;20101;-45
2022/10/25 06:36:26;;;;;;;6.28;2.42;;;;;;;13.98;100.00;101321.66;4705781;30;20061;-46
2022/10/25 06:38:54;;;;;;;8.60;2.53;;;;;;;13.98;100.00;101318.91;4712780;30;20054;-47
2022/10/25 06:41:25;;;;;;;7.22;2.65;;;;;;;13.97;100.00;101324.66;4714709;30;20667;-46
2022/10/25 06:43:52;;;;;;;8.07;2.97;;;;;;;13.96;100.00;101334.81;4699874;30;20052;-44
2022/10/25 06:46:21;;;;;;;11.57;2.95;;;;;;;13.97;100.00;101341.91;4713779;30;20500;-46
2022/10/25 06:48:50;;;;;;;8.10;3.10;;;;;;;13.96;100.00;101336.72;4713772;30;20057;-45
2022/10/25 06:51:18;;;;;;;10.70;2.83;;;;;;;14.00;100.00;101340.56;4712874;30;20084;-46
2022/10/25 06:53:45;;;;;;;11.70;3.03;;;;;;;13.99;100.00;101339.72;4699350;30;20567;-45
2022/10/25 06:56:14;;;;;;;5.93;2.58;;;;;;;14.00;100.00;101341.38;4716427;30;20099;-43
2022/10/25 06:58:41;;;;;;;8.63;3.08;;;;;;;14.03;100.00;101342.72;4712198;30;20535;-49
2022/10/25 07:01:14;;;;;;;9.38;3.00;;;;;;;14.00;100.00;101341.38;4719412;30;20053;-46
2022/10/25 07:03:42;;;;;;;9.65;3.00;;;;;;;14.02;100.00;101347.41;4716676;30;20136;-45
2022/10/25 07:06:15;;;;;;;13.20;3.60;;;;;;;14.01;100.00;101348.47;4715093;30;20045;-45
2022/10/25 07:08:44;;;;;;;8.02;2.85;;;;;;;13.98;100.00;101354.53;4706526;30;20474;-46
2022/10/25 07:11:17;;;;;;;8.75;3.17;;;;;;;13.96;100.00;101356.72;4715533;30;20571;-45
2022/10/25 07:13:45;;;;;;;10.13;2.80;;;;;;;14.00;100.00;101355.06;4717162;30;20053;-45
2022/10/25 07:16:15;;;;;;;8.60;2.50;;;;;;;14.13;100.00;101355.59;4716257;30;20069;-45
2022/10/25 07:18:43;;;;;;;10.88;3.30;;;;;;;14.09;100.00;101360.78;4715513;30;20057;-46
2022/10/25 07:21:15;;;;;;;14.20;3.97;;;;;;;14.06;100.00;101362.16;4716147;30;20536;-47
2022/10/25 07:23:43;;;;;;;12.13;3.92;;;;;;;14.05;100.00;101368.75;4716630;30;20045;-46
2022/10/25 07:26:20;;;;;;;10.07;3.95;;;;;;;14.03;100.00;101373.69;4708588;30;20104;-47
2022/10/25 07:28:49;;;;;;;12.07;4.07;;;;;;;14.02;100.00;101372.06;4708949;30;20058;-46
2022/10/25 07:31:20;;;;;;;12.82;4.20;;;;;;;14.00;100.00;101379.72;4716174;30;20057;-46
2022/10/25 07:33:49;;;;;;;18.75;4.70;;;;;;;13.99;100.00;101378.06;4715929;30;20505;-46
2022/10/25 07:36:16;;;;;;;19.67;5.32;;;;;;;14.02;100.00;101377.53;4717002;30;20061;-44
2022/10/25 07:38:44;;;;;;;15.27;4.45;;;;;;;13.98;100.00;101379.19;4716571;30;20151;-50
2022/10/25 07:41:12;;;;;;;13.85;4.72;;;;;;;13.98;100.00;101384.66;4716471;30;20049;-49
2022/10/25 07:43:40;;;;;;;18.65;5.32;;;;;;;13.97;100.00;101380.25;4715903;30;20049;-44
2022/10/25 07:46:07;;;;;;;12.85;4.65;;;;;;;13.99;100.00;101383.53;4701350;30;20057;-47
2022/10/25 07:48:35;;;;;;;15.02;5.88;;;;;;;14.03;100.00;101392.88;4716709;30;20500;-44
2022/10/25 07:51:05;;;;;;;13.43;5.28;;;;;;;14.07;100.00;101391.22;4716791;30;20104;-42
2022/10/25 07:53:33;;;;;;;15.27;5.53;;;;;;;14.11;100.00;101390.66;4714135;30;20045;-46
2022/10/25 07:56:01;;;;;;;13.13;4.68;;;;;;;14.10;100.00;101392.59;4701239;30;20099;-47
2022/10/25 07:58:28;;;;;;;14.18;4.72;;;;;;;14.12;100.00;101397.75;4716335;30;20052;-47
2022/10/25 08:01:00;;;;;;;13.30;4.35;;;;;;;14.09;100.00;101392.84;4700901;30;20053;-47
2022/10/25 08:03:29;;;;;;;13.48;5.10;;;;;;;14.10;100.00;101398.06;4715483;30;20156;-46
2022/10/25 08:05:57;;;;;;;12.63;4.50;;;;;;;14.12;100.00;101395.03;4715043;30;20041;-46
2022/10/25 08:08:25;;;;;;;14.02;4.80;;;;;;;14.12;100.00;101406.00;4716191;30;20401;-47
2022/10/25 08:10:53;;;;;;;26.77;8.15;;;;;;;14.21;100.00;101404.31;4715431;30;20555;-46
2022/10/25 08:13:21;;;;;;;15.85;5.82;;;;;;;14.28;100.00;101400.19;4063910;30;9999934;-42
2022/10/25 08:15:54;;;;;;;11.98;5.35;;;;;;;14.33;100.00;101413.06;4705638;30;20061;-48
2022/10/25 08:18:22;;;;;;;19.48;6.60;;;;;;;14.26;100.00;101409.78;4697994;30;20049;-44
2022/10/25 08:20:50;;;;;;;32.20;8.77;;;;;;;14.30;100.00;101408.16;4697718;30;20045;-45
2022/10/25 08:23:33;;;;;;;14.13;5.25;;;;;;;14.29;100.00;101422.97;4698834;30;20052;-44
2022/10/25 08:26:01;;;;;;;15.05;5.55;;;;;;;14.39;100.00;101414.69;4699424;30;20100;-43
2022/10/25 08:28:31;;;;;;;12.77;5.28;;;;;;;14.38;100.00;101417.72;4683647;30;20046;-43
2022/10/25 08:30:59;;;;;;;21.88;6.65;;;;;;;14.38;100.00;101418.56;4696904;30;20449;-44
2022/10/25 08:33:28;;;;;;;17.55;5.00;;;;;;;14.32;100.00;101413.38;4684130;30;20425;-47
2022/10/25 08:36:00;;;;;;;13.55;4.88;;;;;;;14.25;100.00;101419.94;4699170;30;20115;-46
2022/10/25 08:38:27;;;;;;;14.90;5.40;;;;;;;14.24;100.00;101422.97;4699172;30;20096;-44
2022/10/25 08:41:01;;;;;;;18.63;5.30;;;;;;;14.22;100.00;101425.16;4703402;30;20052;-46
2022/10/25 08:44:01;;;;;;;13.80;5.10;;;;;;;14.18;100.00;101421.34;4701346;30;20173;-47
2022/10/25 08:46:53;;;;;;;13.02;5.10;;;;;;;14.16;100.00;101421.59;4698453;30;20505;-44
2022/10/25 08:49:20;;;;;;;9.48;4.15;;;;;;;14.20;100.00;101427.38;4690965;30;20054;-49
2022/10/25 08:51:51;;;;;;;13.88;4.70;;;;;;;14.28;100.00;101430.34;4699188;30;20046;-45
2022/10/25 08:54:26;;;;;;;12.57;4.88;;;;;;;14.37;100.00;101429.78;4698720;30;20108;-47
2022/10/25 08:57:11;;;;;;;19.27;6.22;;;;;;;14.65;100.00;101428.38;4697572;30;20046;-42
2022/10/25 08:59:50;;;;;;;17.30;5.10;;;;;;;14.55;100.00;101431.13;4699243;30;20045;-45
2022/10/25 09:02:40;;;;;;;11.48;4.88;;;;;;;14.47;100.00;101433.31;4698753;30;20081;-46
2022/10/25 09:05:19;;;;;;;23.13;6.25;;;;;;;14.53;100.00;101445.09;4699057;30;20081;-47
2022/10/25 09:08:03;;;;;;;28.40;6.13;;;;;;;14.58;100.00;101441.56;4699249;30;20057;-47
2022/10/25 09:10:38;;;;;;;16.08;5.65;;;;;;;14.60;100.00;101447.56;4699383;30;20473;-46
2022/10/25 09:13:27;;;;;;;15.93;4.80;;;;;;;14.52;100.00;101445.38;4698733;30;20054;-47
2022/10/25 09:16:17;;;;;;;14.52;4.35;;;;;;;14.48;100.00;101450.59;4699783;30;20060;-46
2022/10/25 09:18:51;;;;;;;16.25;5.07;;;;;;;14.51;100.00;101455.53;4700845;30;20059;-45
2022/10/25 09:21:33;;;;;;;13.40;4.50;;;;;;;14.48;100.00;101456.09;4715224;30;20064;-47
2022/10/25 09:24:08;;;;;;;13.43;4.55;;;;;;;14.49;100.00;101461.28;4716242;30;20045;-46
2022/10/25 09:26:39;;;;;;;20.15;5.55;;;;;;;14.56;100.00;101458.28;4700792;30;20064;-47
2022/10/25 09:29:30;;;;;;;14.20;4.95;;;;;;;14.58;100.00;101466.22;4714161;30;20131;-46
2022/10/25 09:31:59;;;;;;;10.52;4.80;;;;;;;14.58;100.00;101472.53;4696788;30;20083;-45
2022/10/25 09:34:31;;;;;;;14.38;4.22;;;;;;;14.57;100.00;101470.06;4714238;30;20100;-46
2022/10/25 09:37:21;;;;;;;13.13;4.55;;;;;;;14.61;100.00;101473.91;4715768;30;20041;-45
2022/10/25 09:39:52;;;;;;;15.10;4.45;;;;;;;14.67;100.00;101475.50;4716787;30;20058;-43
2022/10/25 09:42:29;;;;;;;15.43;5.15;;;;;;;14.70;100.00;101475.78;4703420;30;20381;-44
2022/10/25 09:45:00;;;;;;;18.90;6.13;;;;;;;14.79;100.00;101478.78;4716677;30;20052;-45
2022/10/25 09:47:39;;;;;;;14.48;4.50;;;;;;;14.73;100.00;101470.84;4703214;30;20053;-48
2022/10/25 09:50:17;;;;;;;23.17;5.63;;;;;;;14.88;100.00;101466.09;4718574;30;20398;-44
2022/10/25 09:52:48;;;;;;;15.57;5.13;;;;;;;14.83;100.00;101468.06;4706752;30;20113;-46
2022/10/25 09:55:43;;;;;;;13.27;4.78;;;;;;;14.80;100.00;101480.41;4717986;30;20088;-46
2022/10/25 09:58:26;;;;;;;17.15;6.28;;;;;;;14.87;100.00;101475.44;4703058;30;20464;-47
2022/10/25 10:01:03;;;;;;;19.08;4.70;;;;;;;15.04;100.00;101475.09;4703067;30;20119;-43
2022/10/25 10:03:34;;;;;;;16.85;5.40;;;;;;;15.10;100.00;101479.47;4716594;30;20057;-43
2022/10/25 10:06:22;;;;;;;14.88;5.18;;;;;;;15.08;100.00;101480.81;4717747;30;20528;-44
2022/10/25 10:09:04;;;;;;;14.90;4.18;;;;;;;15.20;100.00;101494.22;4717831;30;20049;-48
2022/10/25 10:11:33;;;;;;;18.80;4.78;;;;;;;15.22;100.00;101492.81;4718327;30;20041;-47
2022/10/25 10:14:30;;;;;;;15.35;4.93;;;;;;;15.22;100.00;101492.81;4718058;30;20056;-47
2022/10/25 10:16:59;;;;;;;14.25;4.65;;;;;;;15.19;100.00;101493.41;4705253;30;20057;-45
2022/10/25 10:19:30;;;;;;;16.65;5.03;;;;;;;15.26;100.00;101499.41;4716909;30;20505;-44
2022/10/25 10:22:02;;;;;;;12.40;3.90;;;;;;;15.14;100.00;101501.66;4718166;30;20080;-44
2022/10/25 10:24:38;;;;;;;13.07;3.88;;;;;;;15.12;100.00;101499.19;4720887;30;20037;-46
2022/10/25 10:27:24;;;;;;;14.85;4.68;;;;;;;15.13;100.00;101505.53;4712720;30;20052;-43
2022/10/25 10:29:57;;;;;;;13.35;4.05;;;;;;;15.10;100.00;101506.06;4716821;30;20083;-44
2022/10/25 10:32:35;;;;;;;13.50;3.35;;;;;;;15.06;100.00;101499.53;4717858;30;20174;-44
2022/10/25 10:35:10;;;;;;;12.23;3.38;;;;;;;14.90;100.00;101510.53;4701530;30;20049;-47
2022/10/25 10:37:37;;;;;;;15.25;4.03;;;;;;;14.83;100.00;101512.75;4707388;30;20505;-47
2022/10/25 10:40:08;;;;;;;13.77;3.65;;;;;;;14.79;100.00;101508.97;4716603;30;20417;-48
2022/10/25 10:42:42;;;;;;;11.88;3.33;;;;;;;14.79;100.00;101514.44;4717819;30;20124;-46
2022/10/25 10:45:17;;;;;;;12.93;3.63;;;;;;;14.80;100.00;101513.34;4716604;30;20105;-46
2022/10/25 10:47:55;;;;;;;13.63;3.30;;;;;;;14.85;100.00;101513.31;4717789;30;20049;-47
2022/10/25 10:50:25;;;;;;;9.80;2.92;;;;;;;14.90;100.00;101516.03;4716725;30;20501;-44
2022/10/25 10:52:53;;;;;;;10.95;3.25;;;;;;;14.94;100.00;101518.25;4716489;30;20103;-45
2022/10/25 10:55:57;;;;;;;15.80;3.45;;;;;;;14.97;100.00;101523.16;4715759;30;20053;-45
2022/10/25 10:58:30;;;;;;;13.50;3.47;;;;;;;15.01;100.00;101518.72;4717796;30;20134;-46
2022/10/25 11:01:06;;;;;;;9.95;3.55;;;;;;;15.05;100.00;101525.31;4717298;30;20509;-45
2022/10/25 11:03:39;;;;;;;;;;;;;;;15.06;100.00;101524.22;4717233;30;20049;-46
2022/10/25 11:06:31;;;;;;;13.32;3.45;;;;;;;15.13;100.00;101516.50;4714748;30;19930;-46
2022/10/25 11:09:11;;;;;;;10.85;3.45;;;;;;;15.14;100.00;101512.66;4716618;30;20045;-49
2022/10/25 11:11:39;;;;;;;10.05;3.10;;;;;;;15.23;100.00;101515.63;4717419;30;20484;-47
2022/10/25 11:14:12;;;;;;;8.57;2.85;;;;;;;15.20;100.00;101516.19;4716051;30;20571;-47
2022/10/25 11:16:58;;;;;;;9.60;2.65;;;;;;;15.11;100.00;101515.97;4716936;30;20084;-45
2022/10/25 11:19:37;;;;;;;14.50;3.53;;;;;;;15.10;100.00;101528.03;4717296;30;20053;-44
2022/10/25 11:22:08;;;;;;;12.90;3.55;;;;;;;15.17;100.00;101517.56;4716254;30;20410;-46
2022/10/25 11:25:13;;;;;;;13.95;4.07;;;;;;;15.15;100.00;101517.03;4717191;30;20533;-45
2022/10/25 11:27:59;;;;;;;9.18;2.88;;;;;;;15.18;100.00;101524.72;4717496;30;20107;-47
2022/10/25 11:30:39;;;;;;;7.05;2.90;;;;;;;15.23;100.00;101521.94;4717007;30;20476;-43
2022/10/25 11:33:20;;;;;;;8.88;2.83;;;;;;;15.20;100.00;101518.91;4716218;30;20088;-44
2022/10/25 11:35:50;;;;;;;10.07;2.67;;;;;;;15.23;100.00;101521.13;4717379;30;20508;-48